THY6251 OERK-LTFM
Flight info
| Callsign | THY6251 |
|---|---|
| Flight time | 3h 30m |
| Altitude | 40000 |
| Route | LONIB T503 OVANO L768 FIRAS R655 KTN Q538 ALE M861 NISAP UM861 BELSU UA17 YAVRU UL615 ERSEN |
| Aircraft | A332/H-SDE3GHIJ2J3J5M1RVWXY/LB2D1 |
Departure
| Time | 2026-05-01 09:13 |
|---|---|
| Airport | King Khalid International Airport (OERK) |
Arrival
| Time | 2026-05-01 12:43 |
|---|---|
| Airport | İstanbul Airport (LTFM) |
| Time | Latitude | Longitude | Altitude | Speed | Heading |
|---|---|---|---|---|---|
| 2026-05-01 08:06 | 24.94290 | 46.71300 | 2079 ft | 0 kts | 240° |
| 2026-05-01 08:07 | 24.94354 | 46.71254 | 2080 ft | 0 kts | 240° |
| 2026-05-01 08:59 | 24.94362 | 46.71270 | 2079 ft | 4 kts | 242° |
| 2026-05-01 08:59 | 24.94374 | 46.71297 | 2079 ft | 4 kts | 246° |
| 2026-05-01 09:00 | 24.94384 | 46.71324 | 2077 ft | 4 kts | 252° |
| 2026-05-01 09:00 | 24.94390 | 46.71353 | 2080 ft | 4 kts | 270° |
| 2026-05-01 09:00 | 24.94385 | 46.71376 | 2077 ft | 2 kts | 327° |
| 2026-05-01 09:00 | 24.94383 | 46.71377 | 2077 ft | 5 kts | 330° |
| 2026-05-01 09:05 | 24.94386 | 46.71376 | 2081 ft | 2 kts | 330° |
| 2026-05-01 09:05 | 24.94419 | 46.71354 | 2078 ft | 9 kts | 330° |
| 2026-05-01 09:05 | 24.94497 | 46.71305 | 2081 ft | 17 kts | 330° |
| 2026-05-01 09:05 | 24.94611 | 46.71232 | 2077 ft | 20 kts | 330° |
| 2026-05-01 09:06 | 24.94736 | 46.71154 | 2076 ft | 19 kts | 330° |
| 2026-05-01 09:06 | 24.94859 | 46.71077 | 2080 ft | 22 kts | 330° |
| 2026-05-01 09:06 | 24.94996 | 46.70990 | 2075 ft | 21 kts | 330° |
| 2026-05-01 09:06 | 24.95123 | 46.70910 | 2096 ft | 14 kts | 330° |
| 2026-05-01 09:07 | 24.95203 | 46.70870 | 2078 ft | 11 kts | 2° |
| 2026-05-01 09:07 | 24.95263 | 46.70934 | 2076 ft | 14 kts | 58° |
| 2026-05-01 09:07 | 24.95319 | 46.71038 | 2079 ft | 17 kts | 58° |
| 2026-05-01 09:07 | 24.95383 | 46.71162 | 2076 ft | 18 kts | 60° |
| 2026-05-01 09:08 | 24.95442 | 46.71256 | 2079 ft | 6 kts | 27° |
| 2026-05-01 09:08 | 24.95502 | 46.71238 | 2079 ft | 13 kts | 329° |
| 2026-05-01 09:08 | 24.95609 | 46.71169 | 2077 ft | 22 kts | 329° |
| 2026-05-01 09:08 | 24.95767 | 46.71068 | 2080 ft | 28 kts | 330° |
| 2026-05-01 09:09 | 24.95938 | 46.70961 | 2081 ft | 29 kts | 330° |
| 2026-05-01 09:09 | 24.96109 | 46.70853 | 2078 ft | 23 kts | 330° |
| 2026-05-01 09:09 | 24.96248 | 46.70764 | 2076 ft | 24 kts | 330° |
| 2026-05-01 09:09 | 24.96394 | 46.70672 | 2076 ft | 25 kts | 330° |
| 2026-05-01 09:10 | 24.96547 | 46.70576 | 2075 ft | 26 kts | 330° |
| 2026-05-01 09:10 | 24.96705 | 46.70476 | 2075 ft | 27 kts | 330° |
| 2026-05-01 09:10 | 24.96868 | 46.70372 | 2078 ft | 28 kts | 330° |
| 2026-05-01 09:10 | 24.97037 | 46.70266 | 2075 ft | 28 kts | 330° |
| 2026-05-01 09:11 | 24.97211 | 46.70157 | 2078 ft | 27 kts | 329° |
| 2026-05-01 09:11 | 24.97348 | 46.70069 | 2079 ft | 20 kts | 330° |
| 2026-05-01 09:11 | 24.97464 | 46.69995 | 2076 ft | 18 kts | 329° |
| 2026-05-01 09:11 | 24.97555 | 46.69984 | 2078 ft | 12 kts | 33° |
| 2026-05-01 09:12 | 24.97600 | 46.70058 | 2076 ft | 13 kts | 61° |
| 2026-05-01 09:12 | 24.97640 | 46.70158 | 2073 ft | 15 kts | 79° |
| 2026-05-01 09:12 | 24.97595 | 46.70260 | 2076 ft | 17 kts | 148° |
| 2026-05-01 09:12 | 24.97450 | 46.70352 | 2076 ft | 44 kts | 150° |
| 2026-05-01 09:13 | 24.96990 | 46.70645 | 2075 ft | 108 kts | 150° |
| 2026-05-01 09:13 | 24.96165 | 46.71162 | 2083 ft | 164 kts | 149° |
| 2026-05-01 09:13 | 24.95122 | 46.71814 | 2698 ft | 175 kts | 146° |
| 2026-05-01 09:13 | 24.94096 | 46.72560 | 3510 ft | 182 kts | 143° |
| 2026-05-01 09:14 | 24.93006 | 46.73379 | 4158 ft | 198 kts | 140° |
| 2026-05-01 09:14 | 24.91899 | 46.74398 | 4685 ft | 216 kts | 136° |
| 2026-05-01 09:14 | 24.90730 | 46.75531 | 5168 ft | 232 kts | 138° |
| 2026-05-01 09:14 | 24.89480 | 46.76724 | 5704 ft | 242 kts | 141° |
| 2026-05-01 09:15 | 24.88326 | 46.78111 | 6249 ft | 254 kts | 121° |
| 2026-05-01 09:15 | 24.87984 | 46.80055 | 6669 ft | 271 kts | 87° |
| 2026-05-01 09:15 | 24.88658 | 46.82026 | 7100 ft | 282 kts | 63° |
| 2026-05-01 09:15 | 24.89691 | 46.83887 | 7512 ft | 290 kts | 60° |
| 2026-05-01 09:16 | 24.90744 | 46.85840 | 7884 ft | 301 kts | 62° |
| 2026-05-01 09:16 | 24.91760 | 46.87870 | 8243 ft | 304 kts | 64° |
| 2026-05-01 09:16 | 24.92743 | 46.89940 | 8604 ft | 306 kts | 64° |
| 2026-05-01 09:17 | 24.94675 | 46.94176 | 9344 ft | 313 kts | 65° |
| 2026-05-01 09:17 | 24.95648 | 46.96349 | 9695 ft | 321 kts | 65° |
| 2026-05-01 09:17 | 24.97627 | 47.00804 | 11269 ft | 327 kts | 64° |
| 2026-05-01 09:18 | 24.98723 | 47.03011 | 12125 ft | 330 kts | 56° |
| 2026-05-01 09:18 | 25.02211 | 47.06303 | 13436 ft | 344 kts | 20° |
| 2026-05-01 09:19 | 25.07069 | 47.06775 | 14033 ft | 367 kts | 342° |
| 2026-05-01 09:19 | 25.09553 | 47.05932 | 14388 ft | 379 kts | 336° |
| 2026-05-01 09:19 | 25.12053 | 47.04931 | 14976 ft | 385 kts | 335° |
| 2026-05-01 09:20 | 25.16960 | 47.02529 | 16326 ft | 387 kts | 327° |
| 2026-05-01 09:20 | 25.21674 | 46.99551 | 17666 ft | 394 kts | 326° |
| 2026-05-01 09:21 | 25.26472 | 46.96505 | 18836 ft | 401 kts | 326° |
| 2026-05-01 09:21 | 25.28871 | 46.94987 | 19344 ft | 405 kts | 326° |
| 2026-05-01 09:21 | 25.33797 | 46.91874 | 20430 ft | 411 kts | 326° |
| 2026-05-01 09:22 | 25.38795 | 46.88714 | 21519 ft | 417 kts | 326° |
| 2026-05-01 09:22 | 25.43869 | 46.85503 | 22559 ft | 423 kts | 326° |
| 2026-05-01 09:23 | 25.46434 | 46.83879 | 23069 ft | 426 kts | 326° |
| 2026-05-01 09:23 | 25.51622 | 46.80592 | 24026 ft | 432 kts | 325° |
| 2026-05-01 09:24 | 25.56324 | 46.76591 | 24911 ft | 423 kts | 305° |
| 2026-05-01 09:24 | 25.57933 | 46.73892 | 25361 ft | 419 kts | 295° |
| 2026-05-01 09:24 | 25.60591 | 46.68172 | 26258 ft | 422 kts | 292° |
| 2026-05-01 09:25 | 25.63243 | 46.62347 | 27171 ft | 425 kts | 292° |
| 2026-05-01 09:25 | 25.65924 | 46.56493 | 28077 ft | 428 kts | 292° |
| 2026-05-01 09:26 | 25.67276 | 46.53544 | 28466 ft | 431 kts | 292° |
| 2026-05-01 09:26 | 25.70004 | 46.47593 | 29288 ft | 435 kts | 292° |
| 2026-05-01 09:26 | 25.71380 | 46.44590 | 29687 ft | 437 kts | 292° |
| 2026-05-01 09:27 | 25.74143 | 46.38553 | 30455 ft | 440 kts | 292° |
| 2026-05-01 09:27 | 25.75530 | 46.35522 | 30831 ft | 441 kts | 292° |
| 2026-05-01 09:27 | 25.76901 | 46.32523 | 31122 ft | 441 kts | 291° |
| 2026-05-01 09:28 | 25.78284 | 46.29496 | 31413 ft | 439 kts | 291° |
| 2026-05-01 09:28 | 25.79659 | 46.26487 | 31705 ft | 436 kts | 291° |
| 2026-05-01 09:28 | 25.81029 | 46.23485 | 31999 ft | 433 kts | 291° |
| 2026-05-01 09:28 | 25.82383 | 46.20514 | 32295 ft | 431 kts | 290° |
| 2026-05-01 09:29 | 25.85077 | 46.14604 | 32888 ft | 426 kts | 290° |
| 2026-05-01 09:29 | 25.86412 | 46.11676 | 33190 ft | 424 kts | 290° |
| 2026-05-01 09:30 | 25.89042 | 46.05903 | 33815 ft | 419 kts | 290° |
| 2026-05-01 09:30 | 25.90351 | 46.03025 | 34110 ft | 416 kts | 289° |
| 2026-05-01 09:30 | 25.92952 | 45.97302 | 34641 ft | 414 kts | 289° |
| 2026-05-01 09:31 | 25.94250 | 45.94442 | 34895 ft | 414 kts | 289° |
| 2026-05-01 09:31 | 25.95545 | 45.91586 | 35177 ft | 414 kts | 289° |
| 2026-05-01 09:31 | 25.98139 | 45.85861 | 35742 ft | 415 kts | 289° |
| 2026-05-01 09:32 | 25.99436 | 45.82999 | 36023 ft | 415 kts | 289° |
| 2026-05-01 09:32 | 26.02026 | 45.77274 | 36626 ft | 414 kts | 289° |
| 2026-05-01 09:32 | 26.03318 | 45.74415 | 36905 ft | 414 kts | 288° |
| 2026-05-01 09:33 | 26.04175 | 45.72518 | 37127 ft | 414 kts | 288° |
| 2026-05-01 09:33 | 26.05464 | 45.69664 | 37426 ft | 413 kts | 288° |
| 2026-05-01 09:33 | 26.08462 | 45.63016 | 37978 ft | 415 kts | 288° |
| 2026-05-01 09:34 | 26.09335 | 45.61075 | 37995 ft | 416 kts | 288° |
| 2026-05-01 09:34 | 26.13217 | 45.52453 | 37990 ft | 415 kts | 288° |
| 2026-05-01 09:35 | 26.17396 | 45.44021 | 37989 ft | 426 kts | 297° |
| 2026-05-01 09:36 | 26.21509 | 45.39093 | 37980 ft | 439 kts | 306° |
| 2026-05-01 09:36 | 26.25970 | 45.34419 | 38004 ft | 441 kts | 307° |
| 2026-05-01 09:37 | 26.30473 | 45.29774 | 37980 ft | 441 kts | 306° |
| 2026-05-01 09:37 | 26.37195 | 45.22773 | 37978 ft | 441 kts | 306° |
| 2026-05-01 09:38 | 26.43895 | 45.15738 | 37982 ft | 441 kts | 306° |
| 2026-05-01 09:39 | 26.50562 | 45.08723 | 37971 ft | 441 kts | 306° |
| 2026-05-01 09:39 | 26.55022 | 45.04026 | 37976 ft | 441 kts | 306° |
| 2026-05-01 09:40 | 26.61713 | 44.96972 | 37975 ft | 441 kts | 306° |
| 2026-05-01 09:41 | 26.66172 | 44.92264 | 37972 ft | 440 kts | 306° |
| 2026-05-01 09:41 | 26.72849 | 44.85207 | 37967 ft | 440 kts | 306° |
| 2026-05-01 09:42 | 26.77302 | 44.80493 | 37966 ft | 440 kts | 306° |
| 2026-05-01 09:43 | 26.86161 | 44.71083 | 37968 ft | 440 kts | 306° |
| 2026-05-01 09:43 | 26.90596 | 44.66361 | 37977 ft | 440 kts | 306° |
| 2026-05-01 09:44 | 26.97252 | 44.59270 | 37961 ft | 440 kts | 306° |
| 2026-05-01 09:45 | 27.01682 | 44.54540 | 37964 ft | 440 kts | 306° |
| 2026-05-01 09:45 | 27.08324 | 44.47429 | 37962 ft | 440 kts | 306° |
| 2026-05-01 09:46 | 27.12736 | 44.42698 | 37960 ft | 440 kts | 306° |
| 2026-05-01 09:46 | 27.17185 | 44.37925 | 37958 ft | 440 kts | 306° |
| 2026-05-01 09:47 | 27.21585 | 44.33206 | 37961 ft | 440 kts | 306° |
| 2026-05-01 09:47 | 27.26010 | 44.28458 | 37962 ft | 440 kts | 306° |
| 2026-05-01 09:48 | 27.30433 | 44.23707 | 37962 ft | 439 kts | 306° |
| 2026-05-01 09:48 | 27.34849 | 44.18956 | 37967 ft | 439 kts | 306° |
| 2026-05-01 09:49 | 27.39232 | 44.14234 | 37968 ft | 439 kts | 305° |
| 2026-05-01 09:49 | 27.43647 | 44.09473 | 37962 ft | 439 kts | 305° |
| 2026-05-01 09:50 | 27.48061 | 44.04708 | 37963 ft | 439 kts | 305° |
| 2026-05-01 09:50 | 27.52467 | 43.99947 | 37953 ft | 439 kts | 305° |
| 2026-05-01 09:51 | 27.56845 | 43.95210 | 37972 ft | 439 kts | 305° |
| 2026-05-01 09:51 | 27.61246 | 43.90442 | 37971 ft | 439 kts | 305° |
| 2026-05-01 09:52 | 27.65670 | 43.85644 | 37956 ft | 439 kts | 305° |
| 2026-05-01 09:52 | 27.70056 | 43.80880 | 37967 ft | 438 kts | 305° |
| 2026-05-01 09:53 | 27.74421 | 43.76136 | 37969 ft | 438 kts | 305° |
| 2026-05-01 09:53 | 27.78802 | 43.71367 | 37969 ft | 438 kts | 305° |
| 2026-05-01 09:54 | 27.83185 | 43.66590 | 37970 ft | 438 kts | 305° |
| 2026-05-01 09:54 | 27.87460 | 43.61711 | 37981 ft | 434 kts | 303° |
| 2026-05-01 09:55 | 27.91574 | 43.56729 | 37970 ft | 432 kts | 302° |
| 2026-05-01 09:55 | 27.95634 | 43.51777 | 37971 ft | 432 kts | 302° |
| 2026-05-01 09:56 | 27.99737 | 43.46800 | 37972 ft | 432 kts | 302° |
| 2026-05-01 09:56 | 28.03854 | 43.41822 | 37993 ft | 433 kts | 303° |
| 2026-05-01 09:57 | 28.07943 | 43.36883 | 37970 ft | 430 kts | 303° |
| 2026-05-01 09:57 | 28.12047 | 43.31915 | 37972 ft | 429 kts | 302° |
| 2026-05-01 09:58 | 28.16120 | 43.26975 | 37974 ft | 429 kts | 302° |
| 2026-05-01 09:58 | 28.20176 | 43.22049 | 37998 ft | 430 kts | 302° |
| 2026-05-01 09:59 | 28.24256 | 43.17089 | 37982 ft | 429 kts | 302° |
| 2026-05-01 09:59 | 28.28307 | 43.12161 | 37983 ft | 428 kts | 302° |
| 2026-05-01 10:00 | 28.32367 | 43.07214 | 37980 ft | 428 kts | 302° |
| 2026-05-01 10:00 | 28.36424 | 43.02265 | 37988 ft | 428 kts | 302° |
| 2026-05-01 10:01 | 28.40451 | 42.97346 | 37980 ft | 428 kts | 302° |
| 2026-05-01 10:01 | 28.44500 | 42.92396 | 37983 ft | 427 kts | 302° |
| 2026-05-01 10:02 | 28.48547 | 42.87441 | 37985 ft | 427 kts | 302° |
| 2026-05-01 10:02 | 28.52589 | 42.82487 | 37982 ft | 427 kts | 302° |
| 2026-05-01 10:03 | 28.56623 | 42.77536 | 37985 ft | 427 kts | 302° |
| 2026-05-01 10:03 | 28.60653 | 42.72583 | 37984 ft | 426 kts | 302° |
| 2026-05-01 10:04 | 28.64656 | 42.67659 | 37982 ft | 426 kts | 302° |
| 2026-05-01 10:04 | 28.68682 | 42.62699 | 37983 ft | 426 kts | 302° |
| 2026-05-01 10:05 | 28.72729 | 42.57707 | 37988 ft | 426 kts | 302° |
| 2026-05-01 10:05 | 28.76732 | 42.52764 | 37990 ft | 426 kts | 302° |
| 2026-05-01 10:06 | 28.80735 | 42.47812 | 37990 ft | 426 kts | 302° |
| 2026-05-01 10:06 | 28.84754 | 42.42838 | 37991 ft | 426 kts | 302° |
| 2026-05-01 10:07 | 28.88755 | 42.37877 | 38000 ft | 425 kts | 303° |
| 2026-05-01 10:07 | 28.92746 | 42.32927 | 37996 ft | 424 kts | 303° |
| 2026-05-01 10:08 | 28.98747 | 42.25466 | 37997 ft | 424 kts | 303° |
| 2026-05-01 10:09 | 29.02717 | 42.20524 | 37998 ft | 424 kts | 302° |
| 2026-05-01 10:09 | 29.06699 | 42.15560 | 37998 ft | 424 kts | 303° |
| 2026-05-01 10:10 | 29.10682 | 42.10589 | 37995 ft | 423 kts | 303° |
| 2026-05-01 10:10 | 29.16621 | 42.03165 | 38001 ft | 423 kts | 303° |
| 2026-05-01 10:11 | 29.20596 | 41.98188 | 38021 ft | 423 kts | 303° |
| 2026-05-01 10:11 | 29.24569 | 41.93207 | 38009 ft | 423 kts | 303° |
| 2026-05-01 10:12 | 29.27861 | 41.89077 | 37989 ft | 423 kts | 303° |
| 2026-05-01 10:13 | 29.34484 | 41.80752 | 37998 ft | 423 kts | 303° |
| 2026-05-01 10:13 | 29.38423 | 41.75792 | 38012 ft | 423 kts | 303° |
| 2026-05-01 10:14 | 29.44366 | 41.68299 | 38000 ft | 423 kts | 303° |
| 2026-05-01 10:14 | 29.48326 | 41.63297 | 38000 ft | 423 kts | 303° |
| 2026-05-01 10:15 | 29.52291 | 41.58284 | 37998 ft | 423 kts | 303° |
| 2026-05-01 10:15 | 29.56255 | 41.53265 | 37999 ft | 423 kts | 303° |
| 2026-05-01 10:16 | 29.60206 | 41.48258 | 38000 ft | 423 kts | 303° |
| 2026-05-01 10:17 | 29.66136 | 41.40728 | 38000 ft | 423 kts | 303° |
| 2026-05-01 10:17 | 29.72040 | 41.33217 | 38024 ft | 424 kts | 303° |
| 2026-05-01 10:18 | 29.78507 | 41.26110 | 38002 ft | 431 kts | 309° |
| 2026-05-01 10:19 | 29.83003 | 41.21494 | 38007 ft | 431 kts | 309° |
| 2026-05-01 10:19 | 29.87488 | 41.16909 | 37999 ft | 432 kts | 309° |
| 2026-05-01 10:20 | 29.94202 | 41.10015 | 37995 ft | 431 kts | 309° |
| 2026-05-01 10:20 | 29.98667 | 41.05415 | 38000 ft | 431 kts | 309° |
| 2026-05-01 10:21 | 30.05385 | 40.98479 | 37993 ft | 431 kts | 309° |
| 2026-05-01 10:22 | 30.12077 | 40.91559 | 37992 ft | 432 kts | 309° |
| 2026-05-01 10:23 | 30.18775 | 40.84617 | 37991 ft | 434 kts | 309° |
| 2026-05-01 10:23 | 30.25518 | 40.77619 | 37990 ft | 434 kts | 309° |
| 2026-05-01 10:24 | 30.34495 | 40.68281 | 37991 ft | 434 kts | 309° |
| 2026-05-01 10:25 | 30.43508 | 40.58959 | 37993 ft | 435 kts | 310° |
| 2026-05-01 10:26 | 30.48053 | 40.54313 | 37987 ft | 436 kts | 310° |
| 2026-05-01 10:27 | 30.57159 | 40.44981 | 37983 ft | 437 kts | 310° |
| 2026-05-01 10:28 | 30.63965 | 40.37981 | 37977 ft | 438 kts | 310° |
| 2026-05-01 10:28 | 30.70798 | 40.30940 | 37976 ft | 438 kts | 310° |
| 2026-05-01 10:29 | 30.76859 | 40.24682 | 38012 ft | 438 kts | 311° |
| 2026-05-01 10:30 | 30.85982 | 40.15242 | 37973 ft | 439 kts | 311° |
| 2026-05-01 10:31 | 30.95113 | 40.05770 | 37967 ft | 439 kts | 310° |
| 2026-05-01 10:32 | 31.01927 | 39.98685 | 37960 ft | 439 kts | 311° |
| 2026-05-01 10:33 | 31.11040 | 39.89185 | 37953 ft | 439 kts | 311° |
| 2026-05-01 10:34 | 31.17873 | 39.82047 | 37958 ft | 439 kts | 311° |
| 2026-05-01 10:34 | 31.22410 | 39.77298 | 37956 ft | 440 kts | 311° |
| 2026-05-01 10:35 | 31.29247 | 39.70130 | 37949 ft | 440 kts | 311° |
| 2026-05-01 10:35 | 31.33790 | 39.65360 | 37946 ft | 440 kts | 311° |
| 2026-05-01 10:36 | 31.40624 | 39.58174 | 37947 ft | 440 kts | 311° |
| 2026-05-01 10:37 | 31.45177 | 39.53376 | 37941 ft | 439 kts | 311° |
| 2026-05-01 10:37 | 31.51985 | 39.46190 | 37936 ft | 439 kts | 311° |
| 2026-05-01 10:38 | 31.56522 | 39.41392 | 37941 ft | 439 kts | 311° |
| 2026-05-01 10:38 | 31.61055 | 39.36593 | 37939 ft | 439 kts | 311° |
| 2026-05-01 10:39 | 31.65558 | 39.31819 | 37945 ft | 439 kts | 311° |
| 2026-05-01 10:39 | 31.70091 | 39.27007 | 37945 ft | 439 kts | 311° |
| 2026-05-01 10:40 | 31.74618 | 39.22194 | 37941 ft | 439 kts | 311° |
| 2026-05-01 10:40 | 31.79221 | 39.17479 | 37938 ft | 444 kts | 316° |
| 2026-05-01 10:41 | 31.84594 | 39.13712 | 37942 ft | 452 kts | 324° |
| 2026-05-01 10:42 | 31.93031 | 39.08700 | 37946 ft | 454 kts | 326° |
| 2026-05-01 10:42 | 31.98688 | 39.05401 | 37944 ft | 454 kts | 326° |
| 2026-05-01 10:43 | 32.04337 | 39.02082 | 37941 ft | 454 kts | 326° |
| 2026-05-01 10:43 | 32.09982 | 38.98756 | 37956 ft | 454 kts | 326° |
| 2026-05-01 10:44 | 32.15616 | 38.95432 | 37938 ft | 453 kts | 326° |
| 2026-05-01 10:44 | 32.21231 | 38.92113 | 37938 ft | 453 kts | 326° |
| 2026-05-01 10:45 | 32.26879 | 38.88771 | 37953 ft | 453 kts | 326° |
| 2026-05-01 10:45 | 32.32503 | 38.85439 | 37924 ft | 453 kts | 326° |
| 2026-05-01 10:46 | 32.38141 | 38.82093 | 37931 ft | 453 kts | 326° |
| 2026-05-01 10:46 | 32.43736 | 38.78767 | 37927 ft | 452 kts | 326° |
| 2026-05-01 10:47 | 32.49387 | 38.75404 | 37930 ft | 452 kts | 326° |
| 2026-05-01 10:47 | 32.54984 | 38.72068 | 37925 ft | 452 kts | 326° |
| 2026-05-01 10:48 | 32.60609 | 38.68711 | 37928 ft | 452 kts | 326° |
| 2026-05-01 10:48 | 32.66214 | 38.65364 | 37931 ft | 452 kts | 326° |
| 2026-05-01 10:49 | 32.71827 | 38.62008 | 37922 ft | 451 kts | 326° |
| 2026-05-01 10:49 | 32.77426 | 38.58659 | 37922 ft | 451 kts | 326° |
| 2026-05-01 10:50 | 32.83029 | 38.55302 | 37931 ft | 451 kts | 326° |
| 2026-05-01 10:50 | 32.88629 | 38.51937 | 37927 ft | 451 kts | 326° |
| 2026-05-01 10:51 | 32.91724 | 38.50074 | 37934 ft | 451 kts | 326° |
| 2026-05-01 10:51 | 32.97318 | 38.46703 | 37919 ft | 451 kts | 326° |
| 2026-05-01 10:52 | 33.02879 | 38.43348 | 37920 ft | 451 kts | 326° |
| 2026-05-01 10:52 | 33.07180 | 38.40750 | 37919 ft | 451 kts | 326° |
| 2026-05-01 10:53 | 33.12775 | 38.37367 | 37916 ft | 451 kts | 326° |
| 2026-05-01 10:53 | 33.18369 | 38.33984 | 37916 ft | 451 kts | 326° |
| 2026-05-01 10:54 | 33.23960 | 38.30596 | 37916 ft | 451 kts | 326° |
| 2026-05-01 10:54 | 33.29554 | 38.27186 | 37911 ft | 451 kts | 326° |
| 2026-05-01 10:55 | 33.35140 | 38.23773 | 37908 ft | 451 kts | 326° |
| 2026-05-01 10:55 | 33.40731 | 38.20353 | 37908 ft | 451 kts | 326° |
| 2026-05-01 10:56 | 33.46278 | 38.16958 | 37905 ft | 451 kts | 326° |
| 2026-05-01 10:56 | 33.51871 | 38.13557 | 37902 ft | 451 kts | 326° |
| 2026-05-01 10:57 | 33.57476 | 38.10155 | 37908 ft | 451 kts | 326° |
| 2026-05-01 10:57 | 33.63077 | 38.06749 | 37903 ft | 451 kts | 326° |
| 2026-05-01 10:58 | 33.68671 | 38.03341 | 37903 ft | 451 kts | 326° |
| 2026-05-01 10:58 | 33.74264 | 37.99926 | 37902 ft | 452 kts | 326° |
| 2026-05-01 10:59 | 33.79878 | 37.96493 | 37905 ft | 453 kts | 326° |
| 2026-05-01 10:59 | 33.85264 | 37.92701 | 37896 ft | 443 kts | 315° |
| 2026-05-01 11:00 | 33.89453 | 37.87542 | 37904 ft | 428 kts | 300° |
| 2026-05-01 11:00 | 33.92758 | 37.81619 | 37905 ft | 426 kts | 297° |
| 2026-05-01 11:01 | 33.95894 | 37.75555 | 37905 ft | 426 kts | 296° |
| 2026-05-01 11:01 | 33.99019 | 37.69478 | 37902 ft | 426 kts | 296° |
| 2026-05-01 11:02 | 34.02159 | 37.63421 | 37897 ft | 426 kts | 297° |
| 2026-05-01 11:02 | 34.05298 | 37.57389 | 37893 ft | 426 kts | 297° |
| 2026-05-01 11:03 | 34.08447 | 37.51337 | 37889 ft | 426 kts | 297° |
| 2026-05-01 11:03 | 34.11570 | 37.45321 | 37920 ft | 426 kts | 297° |
| 2026-05-01 11:04 | 34.14713 | 37.39254 | 37887 ft | 427 kts | 297° |
| 2026-05-01 11:04 | 34.18232 | 37.33429 | 37885 ft | 435 kts | 307° |
| 2026-05-01 11:05 | 34.23068 | 37.28859 | 37881 ft | 451 kts | 325° |
| 2026-05-01 11:05 | 34.29109 | 37.26375 | 37886 ft | 470 kts | 345° |
| 2026-05-01 11:06 | 34.35663 | 37.25847 | 37887 ft | 478 kts | 351° |
| 2026-05-01 11:06 | 34.42340 | 37.25721 | 37886 ft | 480 kts | 352° |
| 2026-05-01 11:07 | 34.52347 | 37.25545 | 37896 ft | 479 kts | 352° |
| 2026-05-01 11:07 | 34.59017 | 37.25370 | 37895 ft | 479 kts | 352° |
| 2026-05-01 11:08 | 34.65681 | 37.25178 | 37896 ft | 479 kts | 352° |
| 2026-05-01 11:09 | 34.75646 | 37.24890 | 37904 ft | 480 kts | 352° |
| 2026-05-01 11:09 | 34.82323 | 37.24700 | 37912 ft | 480 kts | 352° |
| 2026-05-01 11:10 | 34.92339 | 37.24413 | 37904 ft | 480 kts | 352° |
| 2026-05-01 11:10 | 34.99024 | 37.24222 | 37903 ft | 480 kts | 352° |
| 2026-05-01 11:11 | 35.05708 | 37.24031 | 37907 ft | 480 kts | 352° |
| 2026-05-01 11:11 | 35.12396 | 37.23839 | 37899 ft | 481 kts | 352° |
| 2026-05-01 11:12 | 35.19035 | 37.23648 | 37899 ft | 481 kts | 352° |
| 2026-05-01 11:12 | 35.25721 | 37.23455 | 37908 ft | 481 kts | 352° |
| 2026-05-01 11:13 | 35.32423 | 37.23263 | 37895 ft | 480 kts | 352° |
| 2026-05-01 11:13 | 35.39092 | 37.23070 | 37894 ft | 480 kts | 352° |
| 2026-05-01 11:14 | 35.45793 | 37.22875 | 37895 ft | 480 kts | 353° |
| 2026-05-01 11:14 | 35.52450 | 37.22681 | 37895 ft | 480 kts | 353° |
| 2026-05-01 11:15 | 35.59133 | 37.22487 | 37897 ft | 480 kts | 353° |
| 2026-05-01 11:15 | 35.65789 | 37.22293 | 37901 ft | 480 kts | 353° |
| 2026-05-01 11:16 | 35.72504 | 37.22098 | 37897 ft | 481 kts | 353° |
| 2026-05-01 11:16 | 35.79189 | 37.21903 | 37900 ft | 481 kts | 353° |
| 2026-05-01 11:17 | 35.85877 | 37.21707 | 37909 ft | 481 kts | 353° |
| 2026-05-01 11:17 | 35.92546 | 37.21512 | 37933 ft | 481 kts | 353° |
| 2026-05-01 11:18 | 35.99245 | 37.21320 | 37951 ft | 481 kts | 353° |
| 2026-05-01 11:18 | 36.05947 | 37.21172 | 37962 ft | 482 kts | 354° |
| 2026-05-01 11:19 | 36.12642 | 37.20934 | 37970 ft | 479 kts | 348° |
| 2026-05-01 11:19 | 36.18990 | 37.19007 | 37946 ft | 464 kts | 331° |
| 2026-05-01 11:20 | 36.24461 | 37.15009 | 37969 ft | 454 kts | 319° |
| 2026-05-01 11:20 | 36.29548 | 37.10359 | 37954 ft | 455 kts | 317° |
| 2026-05-01 11:21 | 36.34579 | 37.05592 | 37942 ft | 455 kts | 317° |
| 2026-05-01 11:21 | 36.39624 | 37.00831 | 37928 ft | 456 kts | 317° |
| 2026-05-01 11:22 | 36.44642 | 36.96107 | 37919 ft | 456 kts | 317° |
| 2026-05-01 11:22 | 36.49693 | 36.91354 | 37913 ft | 456 kts | 317° |
| 2026-05-01 11:23 | 36.54777 | 36.86564 | 37918 ft | 456 kts | 317° |
| 2026-05-01 11:23 | 36.59797 | 36.81828 | 37908 ft | 456 kts | 317° |
| 2026-05-01 11:24 | 36.64868 | 36.77033 | 37914 ft | 456 kts | 317° |
| 2026-05-01 11:25 | 36.72441 | 36.69859 | 37916 ft | 456 kts | 318° |
| 2026-05-01 11:25 | 36.79986 | 36.62680 | 37922 ft | 456 kts | 317° |
| 2026-05-01 11:26 | 36.86666 | 36.56211 | 37929 ft | 456 kts | 317° |
| 2026-05-01 11:27 | 36.91681 | 36.51332 | 37936 ft | 457 kts | 317° |
| 2026-05-01 11:27 | 36.96702 | 36.46449 | 37930 ft | 457 kts | 317° |
| 2026-05-01 11:28 | 37.01720 | 36.41580 | 37930 ft | 456 kts | 317° |
| 2026-05-01 11:28 | 37.06738 | 36.36700 | 37927 ft | 456 kts | 317° |
| 2026-05-01 11:29 | 37.14253 | 36.29374 | 37930 ft | 456 kts | 317° |
| 2026-05-01 11:30 | 37.21778 | 36.22019 | 37915 ft | 457 kts | 317° |
| 2026-05-01 11:30 | 37.26778 | 36.17124 | 37920 ft | 457 kts | 317° |
| 2026-05-01 11:31 | 37.31773 | 36.12225 | 37919 ft | 457 kts | 317° |
| 2026-05-01 11:31 | 37.36771 | 36.07313 | 37922 ft | 457 kts | 317° |
| 2026-05-01 11:32 | 37.41769 | 36.02393 | 37913 ft | 457 kts | 317° |
| 2026-05-01 11:32 | 37.46788 | 35.97443 | 37927 ft | 457 kts | 317° |
| 2026-05-01 11:33 | 37.51776 | 35.92516 | 37915 ft | 457 kts | 317° |
| 2026-05-01 11:33 | 37.56767 | 35.87576 | 37912 ft | 457 kts | 317° |
| 2026-05-01 11:34 | 37.61776 | 35.82612 | 37914 ft | 457 kts | 317° |
| 2026-05-01 11:34 | 37.66783 | 35.77639 | 37918 ft | 458 kts | 317° |
| 2026-05-01 11:35 | 37.71775 | 35.72670 | 37928 ft | 457 kts | 317° |
| 2026-05-01 11:35 | 37.76743 | 35.67723 | 37924 ft | 456 kts | 317° |
| 2026-05-01 11:36 | 37.81739 | 35.62736 | 37928 ft | 456 kts | 317° |
| 2026-05-01 11:36 | 37.86723 | 35.57754 | 37928 ft | 457 kts | 317° |
| 2026-05-01 11:37 | 37.91705 | 35.52763 | 37920 ft | 457 kts | 317° |
| 2026-05-01 11:37 | 37.96679 | 35.47771 | 37921 ft | 456 kts | 317° |
| 2026-05-01 11:38 | 38.01633 | 35.42791 | 37912 ft | 455 kts | 317° |
| 2026-05-01 11:38 | 38.06594 | 35.37792 | 37902 ft | 455 kts | 317° |
| 2026-05-01 11:39 | 38.11542 | 35.32796 | 37895 ft | 457 kts | 317° |
| 2026-05-01 11:39 | 38.16528 | 35.27757 | 37896 ft | 457 kts | 317° |
| 2026-05-01 11:40 | 38.21491 | 35.22733 | 37896 ft | 456 kts | 317° |
| 2026-05-01 11:40 | 38.26421 | 35.17733 | 37888 ft | 455 kts | 317° |
| 2026-05-01 11:41 | 38.31367 | 35.12707 | 37887 ft | 455 kts | 317° |
| 2026-05-01 11:41 | 38.36310 | 35.07674 | 37888 ft | 455 kts | 316° |
| 2026-05-01 11:42 | 38.41270 | 35.02628 | 37884 ft | 455 kts | 316° |
| 2026-05-01 11:42 | 38.46214 | 34.97599 | 37891 ft | 455 kts | 316° |
| 2026-05-01 11:43 | 38.51150 | 34.92571 | 37890 ft | 453 kts | 316° |
| 2026-05-01 11:43 | 38.56071 | 34.87556 | 37903 ft | 453 kts | 316° |
| 2026-05-01 11:44 | 38.63430 | 34.80021 | 37921 ft | 454 kts | 316° |
| 2026-05-01 11:44 | 38.68360 | 34.74963 | 37908 ft | 455 kts | 316° |
| 2026-05-01 11:45 | 38.73290 | 34.69895 | 37905 ft | 454 kts | 316° |
| 2026-05-01 11:45 | 38.78208 | 34.64831 | 37912 ft | 453 kts | 316° |
| 2026-05-01 11:46 | 38.83121 | 34.59764 | 37912 ft | 453 kts | 316° |
| 2026-05-01 11:46 | 38.88027 | 34.54694 | 37909 ft | 453 kts | 316° |
| 2026-05-01 11:47 | 38.92929 | 34.49619 | 37930 ft | 453 kts | 316° |
| 2026-05-01 11:47 | 38.97801 | 34.44568 | 37917 ft | 453 kts | 316° |
| 2026-05-01 11:48 | 39.02707 | 34.39471 | 37919 ft | 453 kts | 316° |
| 2026-05-01 11:48 | 39.07624 | 34.34353 | 37920 ft | 453 kts | 316° |
| 2026-05-01 11:49 | 39.12459 | 34.29156 | 37921 ft | 450 kts | 310° |
| 2026-05-01 11:49 | 39.16635 | 34.23233 | 37922 ft | 446 kts | 306° |
| 2026-05-01 11:50 | 39.20609 | 34.17168 | 37923 ft | 444 kts | 305° |
| 2026-05-01 11:50 | 39.24554 | 34.11041 | 37919 ft | 443 kts | 305° |
| 2026-05-01 11:51 | 39.28500 | 34.04913 | 37926 ft | 444 kts | 304° |
| 2026-05-01 11:51 | 39.32461 | 33.98770 | 37928 ft | 444 kts | 305° |
| 2026-05-01 11:52 | 39.36418 | 33.92631 | 37927 ft | 444 kts | 304° |
| 2026-05-01 11:52 | 39.40360 | 33.86507 | 37934 ft | 443 kts | 304° |
| 2026-05-01 11:53 | 39.44298 | 33.80374 | 37931 ft | 443 kts | 304° |
| 2026-05-01 11:53 | 39.48196 | 33.74217 | 37928 ft | 442 kts | 304° |
| 2026-05-01 11:54 | 39.52053 | 33.68001 | 37954 ft | 442 kts | 303° |
| 2026-05-01 11:54 | 39.55883 | 33.61802 | 37942 ft | 441 kts | 303° |
| 2026-05-01 11:55 | 39.59736 | 33.55628 | 37934 ft | 442 kts | 304° |
| 2026-05-01 11:55 | 39.63665 | 33.49486 | 37941 ft | 442 kts | 304° |
| 2026-05-01 11:56 | 39.67600 | 33.43355 | 37935 ft | 442 kts | 304° |
| 2026-05-01 11:56 | 39.71528 | 33.37208 | 37942 ft | 442 kts | 304° |
| 2026-05-01 11:57 | 39.75422 | 33.31089 | 37945 ft | 442 kts | 304° |
| 2026-05-01 11:57 | 39.79348 | 33.24906 | 37955 ft | 442 kts | 304° |
| 2026-05-01 11:58 | 39.83250 | 33.18750 | 37959 ft | 442 kts | 304° |
| 2026-05-01 11:59 | 39.89090 | 33.09511 | 37962 ft | 442 kts | 304° |
| 2026-05-01 11:59 | 39.93021 | 33.03280 | 37973 ft | 442 kts | 304° |
| 2026-05-01 12:00 | 39.98846 | 32.94021 | 37992 ft | 442 kts | 304° |
| 2026-05-01 12:01 | 40.04680 | 32.84720 | 37986 ft | 443 kts | 304° |
| 2026-05-01 12:01 | 40.08495 | 32.78393 | 37997 ft | 441 kts | 301° |
| 2026-05-01 12:02 | 40.12002 | 32.71832 | 38006 ft | 440 kts | 299° |
| 2026-05-01 12:02 | 40.15006 | 32.64946 | 38031 ft | 435 kts | 292° |
| 2026-05-01 12:03 | 40.17689 | 32.57919 | 38021 ft | 434 kts | 291° |
| 2026-05-01 12:03 | 40.20316 | 32.50812 | 38033 ft | 434 kts | 291° |
| 2026-05-01 12:04 | 40.22936 | 32.43699 | 38046 ft | 434 kts | 291° |
| 2026-05-01 12:04 | 40.25561 | 32.36586 | 38045 ft | 434 kts | 291° |
| 2026-05-01 12:05 | 40.28188 | 32.29467 | 38056 ft | 434 kts | 291° |
| 2026-05-01 12:05 | 40.32122 | 32.18782 | 38071 ft | 434 kts | 291° |
| 2026-05-01 12:06 | 40.34736 | 32.11656 | 38079 ft | 434 kts | 291° |
| 2026-05-01 12:06 | 40.37330 | 32.04567 | 38073 ft | 434 kts | 291° |
| 2026-05-01 12:07 | 40.39941 | 31.97415 | 38076 ft | 435 kts | 291° |
| 2026-05-01 12:07 | 40.42547 | 31.90260 | 38083 ft | 435 kts | 291° |
| 2026-05-01 12:08 | 40.45148 | 31.83099 | 38089 ft | 435 kts | 291° |
| 2026-05-01 12:08 | 40.47746 | 31.75925 | 38088 ft | 435 kts | 291° |
| 2026-05-01 12:09 | 40.50343 | 31.68744 | 38093 ft | 435 kts | 291° |
| 2026-05-01 12:09 | 40.52935 | 31.61559 | 38125 ft | 435 kts | 291° |
| 2026-05-01 12:10 | 40.56808 | 31.50784 | 38118 ft | 434 kts | 290° |
| 2026-05-01 12:11 | 40.60671 | 31.39999 | 38123 ft | 434 kts | 290° |
| 2026-05-01 12:11 | 40.63236 | 31.32813 | 38126 ft | 434 kts | 290° |
| 2026-05-01 12:12 | 40.65793 | 31.25633 | 38133 ft | 433 kts | 291° |
| 2026-05-01 12:12 | 40.68327 | 31.18496 | 38147 ft | 433 kts | 290° |
| 2026-05-01 12:13 | 40.70878 | 31.11294 | 38141 ft | 433 kts | 290° |
| 2026-05-01 12:13 | 40.73421 | 31.04099 | 38155 ft | 433 kts | 290° |
| 2026-05-01 12:14 | 40.75956 | 30.96908 | 38151 ft | 432 kts | 290° |
| 2026-05-01 12:14 | 40.77223 | 30.93309 | 37882 ft | 433 kts | 290° |
| 2026-05-01 12:14 | 40.78490 | 30.89707 | 37416 ft | 433 kts | 290° |
| 2026-05-01 12:15 | 40.79755 | 30.86102 | 36957 ft | 433 kts | 290° |
| 2026-05-01 12:15 | 40.81021 | 30.82490 | 36509 ft | 433 kts | 289° |
| 2026-05-01 12:15 | 40.81858 | 30.80101 | 36199 ft | 434 kts | 289° |
| 2026-05-01 12:15 | 40.83123 | 30.76483 | 35769 ft | 434 kts | 289° |
| 2026-05-01 12:16 | 40.84388 | 30.72858 | 35332 ft | 435 kts | 289° |
| 2026-05-01 12:16 | 40.85615 | 30.69211 | 34940 ft | 433 kts | 285° |
| 2026-05-01 12:16 | 40.86535 | 30.65456 | 34575 ft | 427 kts | 278° |
| 2026-05-01 12:16 | 40.87064 | 30.61651 | 34196 ft | 417 kts | 273° |
| 2026-05-01 12:17 | 40.87452 | 30.57887 | 33766 ft | 410 kts | 272° |
| 2026-05-01 12:17 | 40.87812 | 30.54182 | 33330 ft | 404 kts | 272° |
| 2026-05-01 12:17 | 40.88314 | 30.50523 | 32944 ft | 407 kts | 278° |
| 2026-05-01 12:17 | 40.89180 | 30.46923 | 32523 ft | 415 kts | 285° |
| 2026-05-01 12:18 | 40.90463 | 30.43464 | 32111 ft | 425 kts | 294° |
| 2026-05-01 12:18 | 40.92169 | 30.40224 | 31694 ft | 435 kts | 302° |
| 2026-05-01 12:18 | 40.94149 | 30.37169 | 31242 ft | 440 kts | 304° |
| 2026-05-01 12:18 | 40.96199 | 30.34137 | 30790 ft | 443 kts | 304° |
| 2026-05-01 12:19 | 40.98261 | 30.31096 | 30351 ft | 445 kts | 304° |
| 2026-05-01 12:19 | 41.00263 | 30.28010 | 29899 ft | 436 kts | 300° |
| 2026-05-01 12:19 | 41.01860 | 30.24686 | 29395 ft | 420 kts | 289° |
| 2026-05-01 12:19 | 41.02905 | 30.21151 | 28889 ft | 405 kts | 279° |
| 2026-05-01 12:20 | 41.03398 | 30.17547 | 28389 ft | 392 kts | 269° |
| 2026-05-01 12:20 | 41.03376 | 30.14002 | 27889 ft | 380 kts | 260° |
| 2026-05-01 12:20 | 41.02885 | 30.10610 | 27412 ft | 370 kts | 251° |
| 2026-05-01 12:20 | 41.01976 | 30.07462 | 26941 ft | 364 kts | 242° |
| 2026-05-01 12:21 | 41.00685 | 30.04595 | 26490 ft | 361 kts | 233° |
| 2026-05-01 12:21 | 40.99060 | 30.02081 | 26030 ft | 359 kts | 225° |
| 2026-05-01 12:21 | 40.97259 | 29.99890 | 25590 ft | 355 kts | 223° |
| 2026-05-01 12:21 | 40.95405 | 29.97757 | 25154 ft | 351 kts | 223° |
| 2026-05-01 12:22 | 40.93569 | 29.95653 | 24730 ft | 348 kts | 223° |
| 2026-05-01 12:22 | 40.91794 | 29.93507 | 24287 ft | 344 kts | 226° |
| 2026-05-01 12:22 | 40.90221 | 29.91144 | 23830 ft | 340 kts | 233° |
| 2026-05-01 12:22 | 40.88927 | 29.88554 | 23353 ft | 337 kts | 240° |
| 2026-05-01 12:23 | 40.87926 | 29.85769 | 22860 ft | 335 kts | 247° |
| 2026-05-01 12:23 | 40.87228 | 29.82837 | 22375 ft | 334 kts | 255° |
| 2026-05-01 12:23 | 40.86841 | 29.79816 | 21915 ft | 333 kts | 262° |
| 2026-05-01 12:23 | 40.86722 | 29.76765 | 21441 ft | 332 kts | 266° |
| 2026-05-01 12:24 | 40.86688 | 29.73735 | 20975 ft | 329 kts | 267° |
| 2026-05-01 12:24 | 40.86663 | 29.70727 | 20510 ft | 326 kts | 267° |
| 2026-05-01 12:24 | 40.86634 | 29.67740 | 20069 ft | 323 kts | 267° |
| 2026-05-01 12:24 | 40.86641 | 29.64816 | 19631 ft | 322 kts | 271° |
| 2026-05-01 12:25 | 40.86857 | 29.61884 | 19231 ft | 319 kts | 275° |
| 2026-05-01 12:25 | 40.87646 | 29.56186 | 18523 ft | 313 kts | 285° |
| 2026-05-01 12:25 | 40.88505 | 29.53554 | 18125 ft | 313 kts | 296° |
| 2026-05-01 12:26 | 40.89752 | 29.51199 | 17715 ft | 314 kts | 307° |
| 2026-05-01 12:26 | 40.93221 | 29.47715 | 16916 ft | 317 kts | 330° |
| 2026-05-01 12:26 | 40.95307 | 29.46744 | 16531 ft | 319 kts | 342° |
| 2026-05-01 12:27 | 40.97503 | 29.46258 | 16149 ft | 319 kts | 347° |
| 2026-05-01 12:27 | 41.01679 | 29.44636 | 15395 ft | 311 kts | 337° |
| 2026-05-01 12:28 | 41.05515 | 29.42205 | 14551 ft | 304 kts | 316° |
| 2026-05-01 12:28 | 41.06866 | 29.40117 | 14048 ft | 295 kts | 296° |
| 2026-05-01 12:28 | 41.07433 | 29.35006 | 12924 ft | 284 kts | 255° |
| 2026-05-01 12:29 | 41.06631 | 29.32607 | 12404 ft | 288 kts | 240° |
| 2026-05-01 12:29 | 41.05562 | 29.30358 | 11890 ft | 288 kts | 237° |
| 2026-05-01 12:29 | 41.03357 | 29.25926 | 10879 ft | 288 kts | 237° |
| 2026-05-01 12:30 | 41.01184 | 29.21508 | 9867 ft | 285 kts | 238° |
| 2026-05-01 12:30 | 41.00109 | 29.19311 | 9362 ft | 285 kts | 238° |
| 2026-05-01 12:30 | 40.99031 | 29.17102 | 8818 ft | 286 kts | 238° |
| 2026-05-01 12:31 | 40.97945 | 29.14883 | 8310 ft | 288 kts | 238° |
| 2026-05-01 12:31 | 40.96858 | 29.12661 | 7837 ft | 286 kts | 238° |
| 2026-05-01 12:31 | 40.95780 | 29.10450 | 7378 ft | 286 kts | 238° |
| 2026-05-01 12:31 | 40.94711 | 29.08256 | 6968 ft | 283 kts | 238° |
| 2026-05-01 12:32 | 40.93646 | 29.06071 | 6598 ft | 281 kts | 238° |
| 2026-05-01 12:32 | 40.91560 | 29.01757 | 5952 ft | 273 kts | 242° |
| 2026-05-01 12:32 | 40.90839 | 28.99490 | 5703 ft | 263 kts | 255° |
| 2026-05-01 12:33 | 40.90331 | 28.97211 | 5469 ft | 255 kts | 258° |
| 2026-05-01 12:33 | 40.89867 | 28.94961 | 5230 ft | 254 kts | 258° |
| 2026-05-01 12:33 | 40.89401 | 28.92695 | 5185 ft | 256 kts | 259° |
| 2026-05-01 12:33 | 40.88932 | 28.90429 | 5183 ft | 256 kts | 258° |
| 2026-05-01 12:34 | 40.88461 | 28.88172 | 5185 ft | 254 kts | 258° |
| 2026-05-01 12:34 | 40.88075 | 28.85907 | 5186 ft | 251 kts | 266° |
| 2026-05-01 12:34 | 40.88089 | 28.83632 | 5183 ft | 246 kts | 284° |
| 2026-05-01 12:34 | 40.88598 | 28.81525 | 5183 ft | 238 kts | 302° |
| 2026-05-01 12:35 | 40.89528 | 28.79763 | 5182 ft | 231 kts | 319° |
| 2026-05-01 12:35 | 40.90760 | 28.78467 | 5184 ft | 224 kts | 335° |
| 2026-05-01 12:35 | 40.92120 | 28.77497 | 5184 ft | 222 kts | 338° |
| 2026-05-01 12:35 | 40.93478 | 28.76508 | 5186 ft | 223 kts | 336° |
| 2026-05-01 12:36 | 40.94827 | 28.75485 | 5183 ft | 224 kts | 335° |
| 2026-05-01 12:36 | 40.96148 | 28.74464 | 5179 ft | 220 kts | 336° |
| 2026-05-01 12:36 | 40.97495 | 28.73633 | 5181 ft | 209 kts | 347° |
| 2026-05-01 12:36 | 40.98904 | 28.73306 | 5192 ft | 204 kts | 0° |
| 2026-05-01 12:37 | 41.00312 | 28.73238 | 5192 ft | 202 kts | 3° |
| 2026-05-01 12:37 | 41.01707 | 28.73276 | 5177 ft | 198 kts | 6° |
| 2026-05-01 12:37 | 41.03052 | 28.73310 | 5077 ft | 190 kts | 5° |
| 2026-05-01 12:37 | 41.04351 | 28.73288 | 4855 ft | 184 kts | 3° |
| 2026-05-01 12:38 | 41.05625 | 28.73250 | 4569 ft | 182 kts | 4° |
| 2026-05-01 12:38 | 41.06881 | 28.73222 | 4266 ft | 178 kts | 4° |
| 2026-05-01 12:38 | 41.08108 | 28.73194 | 3998 ft | 175 kts | 4° |
| 2026-05-01 12:38 | 41.09313 | 28.73166 | 3745 ft | 170 kts | 5° |
| 2026-05-01 12:39 | 41.10473 | 28.73137 | 3517 ft | 164 kts | 6° |
| 2026-05-01 12:39 | 41.11613 | 28.73113 | 3305 ft | 163 kts | 5° |
| 2026-05-01 12:39 | 41.12739 | 28.73088 | 3105 ft | 162 kts | 5° |
| 2026-05-01 12:39 | 41.13862 | 28.73061 | 2881 ft | 161 kts | 5° |
| 2026-05-01 12:40 | 41.14975 | 28.73037 | 2640 ft | 159 kts | 5° |
| 2026-05-01 12:40 | 41.16087 | 28.73011 | 2443 ft | 161 kts | 5° |
| 2026-05-01 12:40 | 41.17219 | 28.72987 | 2221 ft | 163 kts | 4° |
| 2026-05-01 12:40 | 41.18324 | 28.72957 | 1988 ft | 155 kts | 4° |
| 2026-05-01 12:41 | 41.19374 | 28.72932 | 1774 ft | 143 kts | 6° |
| 2026-05-01 12:41 | 41.20313 | 28.72907 | 1591 ft | 129 kts | 6° |
| 2026-05-01 12:41 | 41.21204 | 28.72891 | 1420 ft | 128 kts | 6° |
| 2026-05-01 12:41 | 41.22102 | 28.72872 | 1227 ft | 131 kts | 6° |
| 2026-05-01 12:42 | 41.23019 | 28.72852 | 1035 ft | 132 kts | 5° |
| 2026-05-01 12:42 | 41.23943 | 28.72829 | 838 ft | 134 kts | 6° |
| 2026-05-01 12:42 | 41.24874 | 28.72798 | 644 ft | 135 kts | 5° |
| 2026-05-01 12:42 | 41.25823 | 28.72769 | 475 ft | 137 kts | 7° |
| 2026-05-01 12:43 | 41.26765 | 28.72757 | 334 ft | 128 kts | 7° |
| 2026-05-01 12:43 | 41.27461 | 28.72748 | 334 ft | 72 kts | 359° |
| 2026-05-01 12:43 | 41.27876 | 28.72737 | 333 ft | 48 kts | 357° |
| 2026-05-01 12:43 | 41.28192 | 28.72736 | 333 ft | 41 kts | 5° |
| 2026-05-01 12:44 | 41.28394 | 28.72826 | 333 ft | 25 kts | 28° |
| 2026-05-01 12:44 | 41.28446 | 28.72933 | 336 ft | 12 kts | 130° |
| 2026-05-01 12:44 | 41.28283 | 28.72957 | 333 ft | 4 kts | 180° |
| 2026-05-01 12:45 | 41.28207 | 28.72958 | 333 ft | 7 kts | 179° |
| 2026-05-01 12:45 | 41.28125 | 28.72960 | 334 ft | 17 kts | 179° |
| 2026-05-01 12:45 | 41.27983 | 28.72965 | 332 ft | 25 kts | 179° |
| 2026-05-01 12:46 | 41.27808 | 28.72969 | 337 ft | 24 kts | 179° |
| 2026-05-01 12:46 | 41.27670 | 28.72971 | 334 ft | 17 kts | 180° |
| 2026-05-01 12:46 | 41.27568 | 28.72972 | 334 ft | 13 kts | 179° |
| 2026-05-01 12:46 | 41.27450 | 28.72975 | 334 ft | 18 kts | 179° |
| 2026-05-01 12:47 | 41.27297 | 28.72980 | 335 ft | 26 kts | 178° |
| 2026-05-01 12:47 | 41.27130 | 28.72983 | 333 ft | 24 kts | 179° |
| 2026-05-01 12:47 | 41.26989 | 28.72987 | 335 ft | 16 kts | 176° |
| 2026-05-01 12:47 | 41.26954 | 28.73076 | 336 ft | 14 kts | 90° |
| 2026-05-01 12:48 | 41.26955 | 28.73225 | 334 ft | 17 kts | 89° |
| 2026-05-01 12:48 | 41.26958 | 28.73387 | 334 ft | 18 kts | 89° |
| 2026-05-01 12:48 | 41.26959 | 28.73546 | 334 ft | 16 kts | 89° |
| 2026-05-01 12:48 | 41.26962 | 28.73681 | 338 ft | 15 kts | 88° |
| 2026-05-01 12:49 | 41.26960 | 28.73828 | 336 ft | 16 kts | 105° |
| 2026-05-01 12:49 | 41.26874 | 28.73874 | 335 ft | 9 kts | 179° |
| 2026-05-01 12:49 | 41.26821 | 28.73873 | 333 ft | 8 kts | 180° |
| 2026-05-01 12:49 | 41.26771 | 28.73873 | 333 ft | 10 kts | 180° |
| 2026-05-01 12:50 | 41.26722 | 28.73828 | 333 ft | 11 kts | 252° |
| 2026-05-01 12:50 | 41.26720 | 28.73761 | 338 ft | 0 kts | 270° |